sensor_id;sensor_type;location;lat;lon;timestamp;pressure;altitude;pressure_sealevel;temperature;humidity
58785;BME280;44557;51.862;19.378;2022-09-01T00:00:43;99767.71;;;16.59;66.69
58785;BME280;44557;51.862;19.378;2022-09-01T00:01:51;99769.45;;;16.57;66.94
58785;BME280;44557;51.862;19.378;2022-09-01T00:02:56;99773.19;;;16.57;66.91
58785;BME280;44557;51.862;19.378;2022-09-01T00:03:58;99769.69;;;16.58;66.65
58785;BME280;44557;51.862;19.378;2022-09-01T00:05:04;99772.21;;;16.56;66.84
58785;BME280;44557;51.862;19.378;2022-09-01T00:06:07;99774.36;;;16.56;66.87
58785;BME280;44557;51.862;19.378;2022-09-01T00:07:12;99774.48;;;16.39;67.57
58785;BME280;44557;51.862;19.378;2022-09-01T00:08:14;99776.67;;;16.47;67.45
58785;BME280;44557;51.862;19.378;2022-09-01T00:09:18;99774.90;;;16.50;67.19
58785;BME280;44557;51.862;19.378;2022-09-01T00:10:20;99776.73;;;16.50;67.42
58785;BME280;44557;51.862;19.378;2022-09-01T00:11:24;99773.66;;;16.48;67.04
58785;BME280;44557;51.862;19.378;2022-09-01T00:12:28;99774.64;;;16.49;66.94
58785;BME280;44557;51.862;19.378;2022-09-01T00:13:30;99776.58;;;16.41;67.35
58785;BME280;44557;51.862;19.378;2022-09-01T00:14:37;99779.58;;;16.40;67.22
58785;BME280;44557;51.862;19.378;2022-09-01T00:15:39;99776.85;;;16.44;67.34
58785;BME280;44557;51.862;19.378;2022-09-01T00:16:41;99776.65;;;16.41;67.27
58785;BME280;44557;51.862;19.378;2022-09-01T00:17:43;99777.53;;;16.46;67.10
58785;BME280;44557;51.862;19.378;2022-09-01T00:18:49;99776.88;;;16.45;66.94
58785;BME280;44557;51.862;19.378;2022-09-01T00:19:54;99774.74;;;16.46;67.16
58785;BME280;44557;51.862;19.378;2022-09-01T00:20:55;99777.89;;;16.53;66.90
58785;BME280;44557;51.862;19.378;2022-09-01T00:22:00;99777.40;;;16.52;66.94
58785;BME280;44557;51.862;19.378;2022-09-01T00:23:03;99773.11;;;16.44;67.41
58785;BME280;44557;51.862;19.378;2022-09-01T00:24:06;99774.55;;;16.39;67.47
58785;BME280;44557;51.862;19.378;2022-09-01T00:25:08;99777.77;;;16.37;67.62
58785;BME280;44557;51.862;19.378;2022-09-01T00:26:10;99772.42;;;16.35;67.40
58785;BME280;44557;51.862;19.378;2022-09-01T00:27:12;99771.80;;;16.41;67.30
58785;BME280;44557;51.862;19.378;2022-09-01T00:28:13;99772.90;;;16.46;67.25
58785;BME280;44557;51.862;19.378;2022-09-01T00:29:15;99773.53;;;16.45;67.26
58785;BME280;44557;51.862;19.378;2022-09-01T00:30:17;99775.39;;;16.42;67.24
58785;BME280;44557;51.862;19.378;2022-09-01T00:31:20;99779.02;;;16.35;67.49
58785;BME280;44557;51.862;19.378;2022-09-01T00:32:22;99779.28;;;16.31;67.77
58785;BME280;44557;51.862;19.378;2022-09-01T00:33:24;99773.73;;;16.33;67.89
58785;BME280;44557;51.862;19.378;2022-09-01T00:34:25;99774.20;;;16.32;67.65
58785;BME280;44557;51.862;19.378;2022-09-01T00:35:27;99773.77;;;16.40;67.58
58785;BME280;44557;51.862;19.378;2022-09-01T00:36:29;99774.09;;;16.35;67.45
58785;BME280;44557;51.862;19.378;2022-09-01T00:37:31;99776.36;;;16.22;67.92
58785;BME280;44557;51.862;19.378;2022-09-01T00:38:32;99777.46;;;16.26;67.88
58785;BME280;44557;51.862;19.378;2022-09-01T00:39:35;99774.60;;;16.21;68.04
58785;BME280;44557;51.862;19.378;2022-09-01T00:40:37;99777.02;;;16.14;68.34
58785;BME280;44557;51.862;19.378;2022-09-01T00:41:39;99778.13;;;16.18;68.19
58785;BME280;44557;51.862;19.378;2022-09-01T00:42:46;99773.70;;;16.14;68.24
58785;BME280;44557;51.862;19.378;2022-09-01T00:43:56;99775.23;;;16.16;68.03
58785;BME280;44557;51.862;19.378;2022-09-01T00:44:59;99777.83;;;16.15;67.94
58785;BME280;44557;51.862;19.378;2022-09-01T00:46:03;99775.39;;;16.10;68.26
58785;BME280;44557;51.862;19.378;2022-09-01T00:47:05;99777.77;;;16.10;68.23
58785;BME280;44557;51.862;19.378;2022-09-01T00:48:07;99779.80;;;16.03;68.59
58785;BME280;44557;51.862;19.378;2022-09-01T00:49:15;99774.23;;;16.07;68.35
58785;BME280;44557;51.862;19.378;2022-09-01T00:50:20;99777.64;;;16.12;67.68
58785;BME280;44557;51.862;19.378;2022-09-01T00:51:22;99778.98;;;16.12;68.03
58785;BME280;44557;51.862;19.378;2022-09-01T00:52:53;99780.54;;;16.05;68.28
58785;BME280;44557;51.862;19.378;2022-09-01T00:53:57;99780.80;;;16.12;68.26
58785;BME280;44557;51.862;19.378;2022-09-01T00:55:06;99778.58;;;16.01;68.43
58785;BME280;44557;51.862;19.378;2022-09-01T00:56:10;99776.91;;;15.96;68.41
58785;BME280;44557;51.862;19.378;2022-09-01T00:57:14;99777.79;;;16.02;68.54
58785;BME280;44557;51.862;19.378;2022-09-01T00:58:16;99775.66;;;15.98;68.49
58785;BME280;44557;51.862;19.378;2022-09-01T00:59:20;99775.09;;;16.01;68.22
58785;BME280;44557;51.862;19.378;2022-09-01T01:00:25;99774.89;;;16.03;68.26
58785;BME280;44557;51.862;19.378;2022-09-01T01:01:27;99773.64;;;15.91;68.62
58785;BME280;44557;51.862;19.378;2022-09-01T01:02:30;99772.92;;;15.91;68.76
58785;BME280;44557;51.862;19.378;2022-09-01T01:06:17;99774.02;;;15.90;68.96
58785;BME280;44557;51.862;19.378;2022-09-01T01:07:21;99773.38;;;15.89;69.04
58785;BME280;44557;51.862;19.378;2022-09-01T01:08:27;99770.83;;;15.89;69.21
58785;BME280;44557;51.862;19.378;2022-09-01T01:09:38;99771.59;;;15.92;68.68
58785;BME280;44557;51.862;19.378;2022-09-01T01:10:41;99771.42;;;15.92;68.55
58785;BME280;44557;51.862;19.378;2022-09-01T01:11:42;99771.05;;;15.89;68.90
58785;BME280;44557;51.862;19.378;2022-09-01T01:12:48;99772.63;;;15.83;69.27
58785;BME280;44557;51.862;19.378;2022-09-01T01:13:54;99773.08;;;15.86;69.05
58785;BME280;44557;51.862;19.378;2022-09-01T01:14:57;99777.89;;;15.84;69.16
58785;BME280;44557;51.862;19.378;2022-09-01T01:15:59;99773.35;;;15.84;69.10
58785;BME280;44557;51.862;19.378;2022-09-01T01:17:00;99773.73;;;15.83;68.96
58785;BME280;44557;51.862;19.378;2022-09-01T01:18:02;99773.25;;;15.92;68.70
58785;BME280;44557;51.862;19.378;2022-09-01T01:19:04;99776.04;;;15.92;68.81
58785;BME280;44557;51.862;19.378;2022-09-01T01:21:49;99772.95;;;15.93;68.47
58785;BME280;44557;51.862;19.378;2022-09-01T01:23:18;99775.56;;;15.87;68.66
58785;BME280;44557;51.862;19.378;2022-09-01T01:24:27;99774.96;;;15.76;69.01
58785;BME280;44557;51.862;19.378;2022-09-01T01:25:39;99777.30;;;15.68;69.31
58785;BME280;44557;51.862;19.378;2022-09-01T01:26:41;99773.16;;;15.72;69.24
58785;BME280;44557;51.862;19.378;2022-09-01T01:27:44;99773.25;;;15.77;68.75
58785;BME280;44557;51.862;19.378;2022-09-01T01:28:45;99775.34;;;15.66;69.08
58785;BME280;44557;51.862;19.378;2022-09-01T01:29:47;99779.23;;;15.66;69.02
58785;BME280;44557;51.862;19.378;2022-09-01T01:30:53;99779.55;;;15.62;69.20
58785;BME280;44557;51.862;19.378;2022-09-01T01:31:55;99781.36;;;15.60;69.31
58785;BME280;44557;51.862;19.378;2022-09-01T01:32:57;99776.39;;;15.66;69.04
58785;BME280;44557;51.862;19.378;2022-09-01T01:33:59;99781.67;;;15.64;68.92
58785;BME280;44557;51.862;19.378;2022-09-01T01:35:04;99778.15;;;15.63;69.19
58785;BME280;44557;51.862;19.378;2022-09-01T01:36:21;99776.71;;;15.63;69.32
58785;BME280;44557;51.862;19.378;2022-09-01T01:37:27;99777.05;;;15.60;69.34
58785;BME280;44557;51.862;19.378;2022-09-01T01:38:28;99777.35;;;15.67;69.11
58785;BME280;44557;51.862;19.378;2022-09-01T01:39:30;99776.25;;;15.54;69.35
58785;BME280;44557;51.862;19.378;2022-09-01T01:40:32;99773.48;;;15.59;69.43
58785;BME280;44557;51.862;19.378;2022-09-01T01:41:36;99771.65;;;15.59;69.39
58785;BME280;44557;51.862;19.378;2022-09-01T01:42:46;99769.98;;;15.64;69.15
58785;BME280;44557;51.862;19.378;2022-09-01T01:43:48;99767.50;;;15.57;69.43
58785;BME280;44557;51.862;19.378;2022-09-01T01:44:51;99766.41;;;15.59;69.27
58785;BME280;44557;51.862;19.378;2022-09-01T01:45:54;99767.73;;;15.58;69.32
58785;BME280;44557;51.862;19.378;2022-09-01T01:46:59;99769.44;;;15.59;69.44
58785;BME280;44557;51.862;19.378;2022-09-01T01:48:04;99770.23;;;15.51;69.60
58785;BME280;44557;51.862;19.378;2022-09-01T01:49:10;99770.81;;;15.52;69.86
58785;BME280;44557;51.862;19.378;2022-09-01T01:50:13;99766.02;;;15.42;69.83
58785;BME280;44557;51.862;19.378;2022-09-01T01:51:17;99766.92;;;15.44;69.79
58785;BME280;44557;51.862;19.378;2022-09-01T01:52:21;99764.59;;;15.50;69.71
58785;BME280;44557;51.862;19.378;2022-09-01T01:53:25;99763.07;;;15.42;70.00
58785;BME280;44557;51.862;19.378;2022-09-01T01:54:27;99763.27;;;15.40;69.85
58785;BME280;44557;51.862;19.378;2022-09-01T01:55:32;99766.02;;;15.42;69.94
58785;BME280;44557;51.862;19.378;2022-09-01T01:56:34;99762.56;;;15.32;69.63
58785;BME280;44557;51.862;19.378;2022-09-01T01:57:39;99760.18;;;15.24;70.17
58785;BME280;44557;51.862;19.378;2022-09-01T01:58:52;99757.66;;;15.28;70.05
58785;BME280;44557;51.862;19.378;2022-09-01T01:59:54;99757.95;;;15.39;69.71
58785;BME280;44557;51.862;19.378;2022-09-01T02:00:56;99756.20;;;15.35;69.68
58785;BME280;44557;51.862;19.378;2022-09-01T02:01:58;99759.54;;;15.32;70.09
58785;BME280;44557;51.862;19.378;2022-09-01T02:03:04;99757.34;;;15.24;69.92
58785;BME280;44557;51.862;19.378;2022-09-01T02:04:08;99760.35;;;15.16;70.25
58785;BME280;44557;51.862;19.378;2022-09-01T02:05:11;99759.48;;;15.16;70.39
58785;BME280;44557;51.862;19.378;2022-09-01T02:06:13;99757.64;;;15.24;70.24
58785;BME280;44557;51.862;19.378;2022-09-01T02:07:14;99756.63;;;15.24;70.14
58785;BME280;44557;51.862;19.378;2022-09-01T02:08:18;99752.91;;;15.29;69.89
58785;BME280;44557;51.862;19.378;2022-09-01T02:09:22;99757.22;;;15.10;70.66
58785;BME280;44557;51.862;19.378;2022-09-01T02:10:26;99755.35;;;15.08;70.87
58785;BME280;44557;51.862;19.378;2022-09-01T02:11:30;99753.91;;;15.19;70.63
58785;BME280;44557;51.862;19.378;2022-09-01T02:12:34;99754.11;;;15.02;71.03
58785;BME280;44557;51.862;19.378;2022-09-01T02:13:35;99753.77;;;15.04;70.99
58785;BME280;44557;51.862;19.378;2022-09-01T02:14:37;99752.53;;;15.06;70.87
58785;BME280;44557;51.862;19.378;2022-09-01T02:15:42;99755.92;;;15.05;70.94
58785;BME280;44557;51.862;19.378;2022-09-01T02:16:44;99754.49;;;15.08;70.85
58785;BME280;44557;51.862;19.378;2022-09-01T02:17:46;99754.77;;;15.03;70.96
58785;BME280;44557;51.862;19.378;2022-09-01T02:18:49;99752.18;;;15.04;71.02
58785;BME280;44557;51.862;19.378;2022-09-01T02:19:51;99753.71;;;15.02;71.37
58785;BME280;44557;51.862;19.378;2022-09-01T02:20:57;99753.77;;;15.04;71.26
58785;BME280;44557;51.862;19.378;2022-09-01T02:21:59;99751.55;;;15.04;70.97
58785;BME280;44557;51.862;19.378;2022-09-01T02:23:00;99755.08;;;15.06;70.83
58785;BME280;44557;51.862;19.378;2022-09-01T02:24:09;99754.30;;;15.02;70.91
58785;BME280;44557;51.862;19.378;2022-09-01T02:25:12;99757.40;;;15.00;70.84
58785;BME280;44557;51.862;19.378;2022-09-01T02:26:16;99757.77;;;14.97;71.01
58785;BME280;44557;51.862;19.378;2022-09-01T02:27:19;99755.31;;;14.98;70.93
58785;BME280;44557;51.862;19.378;2022-09-01T02:28:29;99754.35;;;14.98;71.10
58785;BME280;44557;51.862;19.378;2022-09-01T02:29:32;99755.30;;;15.01;70.81
58785;BME280;44557;51.862;19.378;2022-09-01T02:30:34;99755.01;;;15.03;70.83
58785;BME280;44557;51.862;19.378;2022-09-01T02:31:38;99756.02;;;15.01;70.84
58785;BME280;44557;51.862;19.378;2022-09-01T02:32:40;99755.95;;;14.99;71.08
58785;BME280;44557;51.862;19.378;2022-09-01T02:33:42;99752.69;;;14.98;70.87
58785;BME280;44557;51.862;19.378;2022-09-01T02:34:50;99753.98;;;14.98;70.92
58785;BME280;44557;51.862;19.378;2022-09-01T02:35:57;99754.02;;;15.01;70.86
58785;BME280;44557;51.862;19.378;2022-09-01T02:36:59;99757.00;;;14.92;71.08
58785;BME280;44557;51.862;19.378;2022-09-01T02:38:00;99756.39;;;14.93;70.80
58785;BME280;44557;51.862;19.378;2022-09-01T02:39:03;99755.23;;;14.90;71.14
58785;BME280;44557;51.862;19.378;2022-09-01T02:40:07;99759.47;;;14.92;70.98
58785;BME280;44557;51.862;19.378;2022-09-01T02:41:11;99758.36;;;14.84;71.13
58785;BME280;44557;51.862;19.378;2022-09-01T02:42:14;99756.68;;;14.84;71.17
58785;BME280;44557;51.862;19.378;2022-09-01T02:43:17;99758.23;;;14.86;71.18
58785;BME280;44557;51.862;19.378;2022-09-01T02:44:20;99756.39;;;14.85;70.90
58785;BME280;44557;51.862;19.378;2022-09-01T02:45:23;99758.98;;;14.80;71.28
58785;BME280;44557;51.862;19.378;2022-09-01T02:46:24;99760.78;;;14.75;70.96
58785;BME280;44557;51.862;19.378;2022-09-01T02:47:26;99760.25;;;14.69;71.26
58785;BME280;44557;51.862;19.378;2022-09-01T02:48:32;99761.41;;;14.71;71.32
58785;BME280;44557;51.862;19.378;2022-09-01T02:49:37;99761.86;;;14.73;71.34
58785;BME280;44557;51.862;19.378;2022-09-01T02:50:40;99762.63;;;14.73;71.11
58785;BME280;44557;51.862;19.378;2022-09-01T02:51:44;99762.77;;;14.68;71.20
58785;BME280;44557;51.862;19.378;2022-09-01T02:52:46;99768.11;;;14.70;71.44
58785;BME280;44557;51.862;19.378;2022-09-01T02:53:52;99765.48;;;14.73;71.22
58785;BME280;44557;51.862;19.378;2022-09-01T02:54:54;99766.49;;;14.72;71.18
58785;BME280;44557;51.862;19.378;2022-09-01T02:55:56;99767.14;;;14.69;71.14
58785;BME280;44557;51.862;19.378;2022-09-01T02:56:59;99770.06;;;14.64;71.05
58785;BME280;44557;51.862;19.378;2022-09-01T02:58:02;99769.23;;;14.59;71.51
58785;BME280;44557;51.862;19.378;2022-09-01T02:59:03;99767.54;;;14.57;71.60
58785;BME280;44557;51.862;19.378;2022-09-01T03:00:08;99765.39;;;14.57;71.85
58785;BME280;44557;51.862;19.378;2022-09-01T03:01:27;99766.58;;;14.53;71.69
58785;BME280;44557;51.862;19.378;2022-09-01T03:02:30;99769.53;;;14.51;71.72
58785;BME280;44557;51.862;19.378;2022-09-01T03:03:33;99768.08;;;14.54;71.80
58785;BME280;44557;51.862;19.378;2022-09-01T03:04:36;99769.65;;;14.53;71.48
58785;BME280;44557;51.862;19.378;2022-09-01T03:05:38;99772.13;;;14.50;71.81
58785;BME280;44557;51.862;19.378;2022-09-01T03:06:40;99771.78;;;14.49;71.91
58785;BME280;44557;51.862;19.378;2022-09-01T03:07:42;99768.85;;;14.49;71.52
58785;BME280;44557;51.862;19.378;2022-09-01T03:08:43;99765.58;;;14.51;71.82
58785;BME280;44557;51.862;19.378;2022-09-01T03:09:45;99767.44;;;14.49;71.56
58785;BME280;44557;51.862;19.378;2022-09-01T03:10:46;99768.85;;;14.45;71.79
58785;BME280;44557;51.862;19.378;2022-09-01T03:11:51;99767.59;;;14.45;71.77
58785;BME280;44557;51.862;19.378;2022-09-01T03:12:53;99765.80;;;14.44;71.52
58785;BME280;44557;51.862;19.378;2022-09-01T03:13:55;99766.31;;;14.42;71.72
58785;BME280;44557;51.862;19.378;2022-09-01T03:14:57;99767.45;;;14.40;71.73
58785;BME280;44557;51.862;19.378;2022-09-01T03:15:58;99764.04;;;14.43;71.72
58785;BME280;44557;51.862;19.378;2022-09-01T03:17:00;99766.77;;;14.34;71.86
58785;BME280;44557;51.862;19.378;2022-09-01T03:18:02;99768.35;;;14.41;71.74
58785;BME280;44557;51.862;19.378;2022-09-01T03:19:08;99767.21;;;14.36;72.04
58785;BME280;44557;51.862;19.378;2022-09-01T03:20:10;99771.25;;;14.30;71.97
58785;BME280;44557;51.862;19.378;2022-09-01T03:21:11;99769.53;;;14.24;72.20
58785;BME280;44557;51.862;19.378;2022-09-01T03:22:17;99772.75;;;14.23;72.31
58785;BME280;44557;51.862;19.378;2022-09-01T03:23:19;99773.05;;;14.17;72.35
58785;BME280;44557;51.862;19.378;2022-09-01T03:24:21;99770.50;;;14.12;72.67
58785;BME280;44557;51.862;19.378;2022-09-01T03:25:24;99773.66;;;14.12;72.62
58785;BME280;44557;51.862;19.378;2022-09-01T03:26:30;99769.92;;;14.14;72.48
58785;BME280;44557;51.862;19.378;2022-09-01T03:27:32;99772.44;;;14.13;72.58
58785;BME280;44557;51.862;19.378;2022-09-01T03:28:33;99771.74;;;14.08;72.56
58785;BME280;44557;51.862;19.378;2022-09-01T03:29:35;99772.98;;;14.03;72.82
58785;BME280;44557;51.862;19.378;2022-09-01T03:30:36;99770.58;;;14.05;72.97
58785;BME280;44557;51.862;19.378;2022-09-01T03:31:41;99770.70;;;14.10;72.79
58785;BME280;44557;51.862;19.378;2022-09-01T03:32:43;99771.04;;;14.11;72.85
58785;BME280;44557;51.862;19.378;2022-09-01T03:33:46;99769.36;;;14.11;72.68
58785;BME280;44557;51.862;19.378;2022-09-01T03:34:48;99768.75;;;14.08;72.56
58785;BME280;44557;51.862;19.378;2022-09-01T03:35:52;99771.46;;;14.03;72.59
58785;BME280;44557;51.862;19.378;2022-09-01T03:36:54;99767.46;;;13.94;72.81
58785;BME280;44557;51.862;19.378;2022-09-01T03:37:58;99767.01;;;13.93;72.91
58785;BME280;44557;51.862;19.378;2022-09-01T03:39:00;99769.91;;;13.91;72.78
58785;BME280;44557;51.862;19.378;2022-09-01T03:40:05;99767.55;;;13.92;72.84
58785;BME280;44557;51.862;19.378;2022-09-01T03:41:09;99767.41;;;13.92;72.78
58785;BME280;44557;51.862;19.378;2022-09-01T03:42:13;99763.29;;;13.96;72.80
58785;BME280;44557;51.862;19.378;2022-09-01T03:43:31;99763.08;;;13.97;72.68
58785;BME280;44557;51.862;19.378;2022-09-01T03:44:33;99765.00;;;13.88;73.05
58785;BME280;44557;51.862;19.378;2022-09-01T03:45:40;99765.53;;;13.90;72.94
58785;BME280;44557;51.862;19.378;2022-09-01T03:46:43;99763.15;;;13.93;73.13
58785;BME280;44557;51.862;19.378;2022-09-01T03:47:45;99766.13;;;13.95;73.00
58785;BME280;44557;51.862;19.378;2022-09-01T03:48:51;99770.81;;;13.92;72.77
58785;BME280;44557;51.862;19.378;2022-09-01T03:49:55;99769.40;;;13.81;72.95
58785;BME280;44557;51.862;19.378;2022-09-01T03:50:59;99766.48;;;13.83;73.29
58785;BME280;44557;51.862;19.378;2022-09-01T03:52:04;99770.70;;;13.88;73.00
58785;BME280;44557;51.862;19.378;2022-09-01T03:53:10;99764.80;;;13.74;73.18
58785;BME280;44557;51.862;19.378;2022-09-01T03:54:12;99765.86;;;13.68;73.58
58785;BME280;44557;51.862;19.378;2022-09-01T03:55:16;99766.46;;;13.70;73.65
58785;BME280;44557;51.862;19.378;2022-09-01T03:56:21;99768.14;;;13.70;73.40
58785;BME280;44557;51.862;19.378;2022-09-01T03:57:25;99768.59;;;13.64;73.27
58785;BME280;44557;51.862;19.378;2022-09-01T03:58:29;99767.14;;;13.66;73.45
58785;BME280;44557;51.862;19.378;2022-09-01T03:59:31;99771.34;;;13.66;73.62
58785;BME280;44557;51.862;19.378;2022-09-01T04:00:39;99769.39;;;13.68;73.47
58785;BME280;44557;51.862;19.378;2022-09-01T04:01:44;99775.33;;;13.61;73.61
58785;BME280;44557;51.862;19.378;2022-09-01T04:02:52;99777.50;;;13.66;73.48
58785;BME280;44557;51.862;19.378;2022-09-01T04:03:57;99773.41;;;13.70;73.21
58785;BME280;44557;51.862;19.378;2022-09-01T04:04:58;99777.36;;;13.70;73.47
58785;BME280;44557;51.862;19.378;2022-09-01T04:06:01;99773.42;;;13.67;73.52
58785;BME280;44557;51.862;19.378;2022-09-01T04:07:03;99774.23;;;13.65;73.85
58785;BME280;44557;51.862;19.378;2022-09-01T04:08:07;99773.70;;;13.69;73.50
58785;BME280;44557;51.862;19.378;2022-09-01T04:09:13;99774.13;;;13.61;73.60
58785;BME280;44557;51.862;19.378;2022-09-01T04:10:16;99773.08;;;13.66;73.49
58785;BME280;44557;51.862;19.378;2022-09-01T04:11:22;99772.39;;;13.67;73.46
58785;BME280;44557;51.862;19.378;2022-09-01T04:12:24;99770.08;;;13.69;73.57
58785;BME280;44557;51.862;19.378;2022-09-01T04:13:33;99768.98;;;13.72;73.38
58785;BME280;44557;51.862;19.378;2022-09-01T04:14:35;99773.14;;;13.78;73.29
58785;BME280;44557;51.862;19.378;2022-09-01T04:15:37;99771.67;;;13.77;73.37
58785;BME280;44557;51.862;19.378;2022-09-01T04:16:38;99772.48;;;13.77;73.40
58785;BME280;44557;51.862;19.378;2022-09-01T04:17:58;99774.48;;;13.71;73.47
58785;BME280;44557;51.862;19.378;2022-09-01T04:19:25;99775.45;;;13.72;73.39
58785;BME280;44557;51.862;19.378;2022-09-01T04:20:26;99779.83;;;13.73;73.57
58785;BME280;44557;51.862;19.378;2022-09-01T04:21:29;99778.09;;;13.76;73.50
58785;BME280;44557;51.862;19.378;2022-09-01T04:22:33;99778.48;;;13.80;73.54
58785;BME280;44557;51.862;19.378;2022-09-01T04:23:38;99780.10;;;13.84;73.61
58785;BME280;44557;51.862;19.378;2022-09-01T04:24:39;99779.19;;;13.83;73.36
58785;BME280;44557;51.862;19.378;2022-09-01T04:25:43;99779.77;;;13.80;73.46
58785;BME280;44557;51.862;19.378;2022-09-01T04:26:47;99772.92;;;13.76;73.45
58785;BME280;44557;51.862;19.378;2022-09-01T04:27:51;99775.91;;;13.72;73.79
58785;BME280;44557;51.862;19.378;2022-09-01T04:28:57;99777.38;;;13.73;73.94
58785;BME280;44557;51.862;19.378;2022-09-01T04:29:59;99778.34;;;13.77;73.82
58785;BME280;44557;51.862;19.378;2022-09-01T04:31:05;99778.66;;;13.71;73.86
58785;BME280;44557;51.862;19.378;2022-09-01T04:32:09;99776.55;;;13.69;73.86
58785;BME280;44557;51.862;19.378;2022-09-01T04:33:16;99778.88;;;13.70;73.92
58785;BME280;44557;51.862;19.378;2022-09-01T04:34:22;99779.72;;;13.69;73.85
58785;BME280;44557;51.862;19.378;2022-09-01T04:35:24;99781.31;;;13.63;74.03
58785;BME280;44557;51.862;19.378;2022-09-01T04:36:32;99779.38;;;13.65;74.29
58785;BME280;44557;51.862;19.378;2022-09-01T04:37:34;99782.85;;;13.71;74.03
58785;BME280;44557;51.862;19.378;2022-09-01T04:38:37;99782.13;;;13.70;74.14
58785;BME280;44557;51.862;19.378;2022-09-01T04:39:39;99779.92;;;13.71;74.16
58785;BME280;44557;51.862;19.378;2022-09-01T04:40:48;99783.20;;;13.69;74.28
58785;BME280;44557;51.862;19.378;2022-09-01T04:41:50;99786.17;;;13.74;74.18
58785;BME280;44557;51.862;19.378;2022-09-01T04:42:51;99783.02;;;13.83;74.17
58785;BME280;44557;51.862;19.378;2022-09-01T04:43:53;99785.00;;;13.87;73.87
58785;BME280;44557;51.862;19.378;2022-09-01T04:44:59;99787.06;;;13.84;73.87
58785;BME280;44557;51.862;19.378;2022-09-01T04:46:01;99782.74;;;13.85;73.79
58785;BME280;44557;51.862;19.378;2022-09-01T04:47:03;99783.86;;;13.85;73.89
58785;BME280;44557;51.862;19.378;2022-09-01T04:48:11;99782.55;;;13.87;73.89
58785;BME280;44557;51.862;19.378;2022-09-01T04:49:14;99787.77;;;13.87;73.79
58785;BME280;44557;51.862;19.378;2022-09-01T04:50:19;99786.08;;;13.91;73.76
58785;BME280;44557;51.862;19.378;2022-09-01T04:51:22;99785.86;;;13.97;73.41
58785;BME280;44557;51.862;19.378;2022-09-01T04:52:28;99784.81;;;13.98;73.46
58785;BME280;44557;51.862;19.378;2022-09-01T04:53:32;99785.64;;;14.03;73.09
58785;BME280;44557;51.862;19.378;2022-09-01T04:54:33;99786.98;;;14.09;73.12
58785;BME280;44557;51.862;19.378;2022-09-01T04:55:39;99785.52;;;14.08;72.81
58785;BME280;44557;51.862;19.378;2022-09-01T04:56:47;99786.67;;;14.07;72.88
58785;BME280;44557;51.862;19.378;2022-09-01T04:57:51;99786.23;;;14.05;73.08
58785;BME280;44557;51.862;19.378;2022-09-01T04:58:52;99787.38;;;14.09;72.94
58785;BME280;44557;51.862;19.378;2022-09-01T04:59:57;99787.88;;;14.17;72.51
58785;BME280;44557;51.862;19.378;2022-09-01T05:00:59;99783.46;;;14.27;72.29
58785;BME280;44557;51.862;19.378;2022-09-01T05:02:00;99785.00;;;14.29;72.15
58785;BME280;44557;51.862;19.378;2022-09-01T05:03:02;99786.14;;;14.29;72.13
58785;BME280;44557;51.862;19.378;2022-09-01T05:04:05;99785.88;;;14.32;72.15
58785;BME280;44557;51.862;19.378;2022-09-01T05:05:07;99784.98;;;14.44;72.04
58785;BME280;44557;51.862;19.378;2022-09-01T05:06:18;99788.88;;;14.48;71.56
58785;BME280;44557;51.862;19.378;2022-09-01T05:07:20;99788.15;;;14.55;71.24
58785;BME280;44557;51.862;19.378;2022-09-01T05:08:22;99788.41;;;14.67;71.02
58785;BME280;44557;51.862;19.378;2022-09-01T05:09:24;99785.52;;;14.77;70.34
58785;BME280;44557;51.862;19.378;2022-09-01T05:10:26;99787.44;;;14.84;69.96
58785;BME280;44557;51.862;19.378;2022-09-01T05:11:30;99786.04;;;14.89;69.71
58785;BME280;44557;51.862;19.378;2022-09-01T05:12:33;99790.27;;;14.87;69.90
58785;BME280;44557;51.862;19.378;2022-09-01T05:13:36;99787.61;;;14.89;69.71
58785;BME280;44557;51.862;19.378;2022-09-01T05:14:43;99787.86;;;15.12;69.23
58785;BME280;44557;51.862;19.378;2022-09-01T05:15:59;99789.06;;;15.16;68.78
58785;BME280;44557;51.862;19.378;2022-09-01T05:17:03;99787.20;;;15.15;68.85
58785;BME280;44557;51.862;19.378;2022-09-01T05:18:17;99785.59;;;15.26;68.62
58785;BME280;44557;51.862;19.378;2022-09-01T05:19:28;99791.20;;;15.28;68.17
58785;BME280;44557;51.862;19.378;2022-09-01T05:20:50;99789.48;;;15.30;68.29
58785;BME280;44557;51.862;19.378;2022-09-01T05:21:52;99789.02;;;15.38;68.20
58785;BME280;44557;51.862;19.378;2022-09-01T05:22:58;99787.50;;;15.41;67.79
58785;BME280;44557;51.862;19.378;2022-09-01T05:24:19;99790.59;;;15.62;67.30
58785;BME280;44557;51.862;19.378;2022-09-01T05:25:42;99783.83;;;15.70;67.02
58785;BME280;44557;51.862;19.378;2022-09-01T05:26:45;99784.36;;;15.87;66.65
58785;BME280;44557;51.862;19.378;2022-09-01T05:27:48;99785.88;;;15.87;66.53
58785;BME280;44557;51.862;19.378;2022-09-01T05:28:56;99784.48;;;15.89;66.35
58785;BME280;44557;51.862;19.378;2022-09-01T05:30:18;99789.30;;;15.97;66.03
58785;BME280;44557;51.862;19.378;2022-09-01T05:31:22;99785.39;;;16.05;65.41
58785;BME280;44557;51.862;19.378;2022-09-01T05:32:24;99788.70;;;16.09;65.20
58785;BME280;44557;51.862;19.378;2022-09-01T05:33:35;99790.05;;;16.19;65.12
58785;BME280;44557;51.862;19.378;2022-09-01T05:34:40;99788.90;;;16.32;64.32
58785;BME280;44557;51.862;19.378;2022-09-01T05:35:55;99788.84;;;16.38;64.50
58785;BME280;44557;51.862;19.378;2022-09-01T05:37:02;99784.30;;;16.57;64.07
58785;BME280;44557;51.862;19.378;2022-09-01T05:38:06;99780.69;;;16.55;63.61
58785;BME280;44557;51.862;19.378;2022-09-01T05:39:13;99783.14;;;16.65;63.52
58785;BME280;44557;51.862;19.378;2022-09-01T05:40:15;99784.60;;;16.84;62.93
58785;BME280;44557;51.862;19.378;2022-09-01T05:41:17;99783.99;;;16.93;62.60